Time,TemperatureF,DewpointF,PressureIn,WindDirection,WindDirectionDegrees,WindSpeedMPH,WindSpeedGustMPH,Humidity,HourlyPrecipIn,Conditions,Clouds,dailyrainin,SolarRadiationWatts/m^2,SoftwareType,DateUTC
2013-03-18 00:03:00,63.0,54.0,-100.00,NNW,348,1.0,4.0,72,0.00,,,0.00,0.000000,,2013-03-18 10:03:00,
2013-03-18 00:12:00,63.0,54.0,-100.00,NNW,348,1.0,4.0,72,0.00,,,0.00,0.000000,,2013-03-18 10:12:00,
2013-03-18 00:23:00,63.0,54.0,-100.00,NNW,348,1.0,4.0,72,0.00,,,0.00,0.000000,,2013-03-18 10:23:00,
2013-03-18 00:32:00,63.0,54.0,-100.00,NNW,348,1.0,4.0,72,0.00,,,0.00,0.000000,,2013-03-18 10:32:00,
2013-03-18 01:03:00,62.0,54.0,-100.00,NNW,338,3.0,6.0,76,0.00,,,0.00,0.000000,,2013-03-18 11:03:00,
2013-03-18 01:12:00,62.0,54.0,-100.00,NNW,338,3.0,6.0,76,0.00,,,0.00,0.000000,,2013-03-18 11:12:00,
2013-03-18 01:22:00,62.0,54.0,-100.00,NNW,338,3.0,6.0,76,0.00,,,0.00,0.000000,,2013-03-18 11:22:00,
2013-03-18 01:31:00,62.0,54.0,-100.00,NNW,338,3.0,6.0,76,0.00,,,0.00,0.000000,,2013-03-18 11:31:00,
2013-03-18 02:02:00,62.0,54.0,-100.00,North,357,3.0,4.0,74,0.00,,,0.00,0.000000,,2013-03-18 12:02:00,
2013-03-18 02:12:00,62.0,54.0,-100.00,North,357,3.0,4.0,74,0.00,,,0.00,0.000000,,2013-03-18 12:12:00,
2013-03-18 02:22:00,62.0,54.0,-100.00,North,357,3.0,4.0,74,0.00,,,0.00,0.000000,,2013-03-18 12:22:00,
2013-03-18 02:32:00,62.0,54.0,-100.00,North,357,3.0,4.0,74,0.00,,,0.00,0.000000,,2013-03-18 12:32:00,
2013-03-18 03:02:00,62.0,52.0,-100.00,North,5,6.0,7.0,70,0.00,,,0.00,0.000000,,2013-03-18 13:02:00,
2013-03-18 03:12:00,62.0,52.0,-100.00,North,5,6.0,7.0,70,0.00,,,0.00,0.000000,,2013-03-18 13:12:00,
2013-03-18 03:22:00,62.0,52.0,-100.00,North,5,6.0,7.0,70,0.00,,,0.00,0.000000,,2013-03-18 13:22:00,
2013-03-18 03:32:00,62.0,52.0,-100.00,North,5,6.0,7.0,70,0.00,,,0.00,0.000000,,2013-03-18 13:32:00,
2013-03-18 04:02:00,62.0,51.0,-100.00,North,5,7.0,10.0,68,0.00,,,0.00,0.000000,,2013-03-18 14:02:00,
2013-03-18 04:12:00,62.0,51.0,-100.00,North,5,7.0,10.0,68,0.00,,,0.00,0.000000,,2013-03-18 14:12:00,
2013-03-18 04:22:00,62.0,51.0,-100.00,North,5,7.0,10.0,68,0.00,,,0.00,0.000000,,2013-03-18 14:22:00,
2013-03-18 04:32:00,62.0,51.0,-100.00,North,5,7.0,10.0,68,0.00,,,0.00,0.000000,,2013-03-18 14:32:00,
2013-03-18 05:02:00,62.0,51.0,-100.00,North,359,4.0,8.0,68,0.00,,,0.00,0.000000,,2013-03-18 15:02:00,
2013-03-18 05:12:00,62.0,51.0,-100.00,North,359,4.0,8.0,68,0.00,,,0.00,0.000000,,2013-03-18 15:12:00,
2013-03-18 05:22:00,62.0,51.0,-100.00,North,359,4.0,8.0,68,0.00,,,0.00,0.000000,,2013-03-18 15:22:00,
2013-03-18 05:33:00,62.0,51.0,-100.00,North,359,4.0,8.0,68,0.00,,,0.00,0.000000,,2013-03-18 15:33:00,
2013-03-18 06:02:00,62.0,52.0,-100.00,North,5,6.0,9.0,69,0.00,,,0.00,0.000000,,2013-03-18 16:02:00,
2013-03-18 06:12:00,62.0,52.0,-100.00,North,5,6.0,9.0,69,0.00,,,0.00,0.000000,,2013-03-18 16:12:00,
2013-03-18 06:22:00,62.0,52.0,-100.00,North,5,6.0,9.0,69,0.00,,,0.00,0.000000,,2013-03-18 16:22:00,
2013-03-18 06:32:00,62.0,52.0,-100.00,North,5,6.0,9.0,69,0.00,,,0.00,0.000000,,2013-03-18 16:32:00,
2013-03-18 06:52:00,62.0,52.0,-100.00,North,9,6.0,10.0,69,0.00,,,-99.99,0.000000,,2013-03-18 16:52:00,
2013-03-18 07:02:00,62.0,52.0,-100.00,North,9,6.0,10.0,69,0.00,,,-99.99,0.000000,,2013-03-18 17:02:00,
2013-03-18 07:12:00,62.0,52.0,-100.00,North,9,6.0,10.0,69,0.00,,,-99.99,0.000000,,2013-03-18 17:12:00,
2013-03-18 07:22:00,62.0,52.0,-100.00,North,9,6.0,10.0,69,0.00,,,-99.99,0.000000,,2013-03-18 17:22:00,
2013-03-18 07:32:00,62.0,52.0,-100.00,North,9,6.0,10.0,69,0.00,,,-99.99,0.000000,,2013-03-18 17:32:00,
2013-03-18 08:02:00,66.0,53.0,-100.00,North,8,5.0,8.0,64,0.00,,,0.00,72.000000,,2013-03-18 18:02:00,
2013-03-18 08:12:00,66.0,53.0,-100.00,North,8,5.0,8.0,64,0.00,,,0.00,72.000000,,2013-03-18 18:12:00,
2013-03-18 08:22:00,66.0,53.0,-100.00,North,8,5.0,8.0,64,0.00,,,0.00,72.000000,,2013-03-18 18:22:00,
2013-03-18 08:32:00,66.0,53.0,-100.00,North,8,5.0,8.0,64,0.00,,,0.00,72.000000,,2013-03-18 18:32:00,
2013-03-18 09:02:00,72.0,53.0,-100.00,East,88,4.0,9.0,51,0.00,,,0.00,350.000000,,2013-03-18 19:02:00,
2013-03-18 09:12:00,72.0,53.0,-100.00,East,88,4.0,9.0,51,0.00,,,0.00,350.000000,,2013-03-18 19:12:00,
2013-03-18 09:22:00,72.0,53.0,-100.00,East,88,4.0,9.0,51,0.00,,,0.00,350.000000,,2013-03-18 19:22:00,
2013-03-18 09:32:00,72.0,53.0,-100.00,East,88,4.0,9.0,51,0.00,,,0.00,350.000000,,2013-03-18 19:32:00,
2013-03-18 10:02:00,74.0,52.0,-100.00,SW,215,7.0,10.0,46,0.00,,,0.00,640.000000,,2013-03-18 20:02:00,
2013-03-18 10:12:00,74.0,52.0,-100.00,SW,215,7.0,10.0,46,0.00,,,0.00,640.000000,,2013-03-18 20:12:00,
2013-03-18 10:22:00,74.0,52.0,-100.00,SW,215,7.0,10.0,46,0.00,,,0.00,640.000000,,2013-03-18 20:22:00,
2013-03-18 10:32:00,74.0,52.0,-100.00,SW,215,7.0,10.0,46,0.00,,,0.00,640.000000,,2013-03-18 20:32:00,
2013-03-18 11:02:00,76.0,53.0,-100.00,SW,219,8.0,11.0,45,0.00,,,0.00,838.000000,,2013-03-18 21:02:00,
2013-03-18 11:11:00,76.0,53.0,-100.00,SW,219,8.0,11.0,45,0.00,,,0.00,838.000000,,2013-03-18 21:11:00,
2013-03-18 11:22:00,76.0,53.0,-100.00,SW,219,8.0,11.0,45,0.00,,,0.00,838.000000,,2013-03-18 21:22:00,
2013-03-18 11:32:00,76.0,53.0,-100.00,SW,219,8.0,11.0,45,0.00,,,0.00,838.000000,,2013-03-18 21:32:00,
2013-03-18 12:03:00,78.0,55.0,-100.00,SW,225,9.0,13.0,45,0.00,,,0.00,1037.000000,,2013-03-18 22:03:00,
2013-03-18 12:12:00,78.0,55.0,-100.00,SW,225,9.0,13.0,45,0.00,,,0.00,1037.000000,,2013-03-18 22:12:00,
2013-03-18 12:22:00,78.0,55.0,-100.00,SW,225,9.0,13.0,45,0.00,,,0.00,1037.000000,,2013-03-18 22:22:00,
2013-03-18 12:32:00,78.0,55.0,-100.00,SW,225,9.0,13.0,45,0.00,,,0.00,1037.000000,,2013-03-18 22:32:00,
2013-03-18 13:02:00,78.0,52.0,-100.00,SSW,202,9.0,14.0,40,0.00,,,0.00,1013.000000,,2013-03-18 23:02:00,
2013-03-18 13:12:00,78.0,52.0,-100.00,SSW,202,9.0,14.0,40,0.00,,,0.00,1013.000000,,2013-03-18 23:12:00,
2013-03-18 13:22:00,78.0,52.0,-100.00,SSW,202,9.0,14.0,40,0.00,,,0.00,1013.000000,,2013-03-18 23:22:00,
2013-03-18 13:32:00,78.0,52.0,-100.00,SSW,202,9.0,14.0,40,0.00,,,0.00,1013.000000,,2013-03-18 23:32:00,
2013-03-18 14:02:00,79.0,49.0,-100.00,SW,221,11.0,17.0,35,0.00,,,0.00,797.000000,,2013-03-19 00:02:00,
2013-03-18 14:12:00,79.0,49.0,-100.00,SW,221,11.0,17.0,35,0.00,,,0.00,797.000000,,2013-03-19 00:12:00,
2013-03-18 14:22:00,79.0,49.0,-100.00,SW,221,11.0,17.0,35,0.00,,,0.00,797.000000,,2013-03-19 00:22:00,
2013-03-18 14:32:00,79.0,49.0,-100.00,SW,221,11.0,17.0,35,0.00,,,0.00,797.000000,,2013-03-19 00:32:00,
2013-03-18 15:02:00,80.0,47.0,-100.00,SSW,212,11.0,17.0,31,0.00,,,0.00,919.000000,,2013-03-19 01:02:00,
2013-03-18 15:12:00,80.0,47.0,-100.00,SSW,212,11.0,17.0,31,0.00,,,0.00,919.000000,,2013-03-19 01:12:00,
2013-03-18 15:22:00,80.0,47.0,-100.00,SSW,212,11.0,17.0,31,0.00,,,0.00,919.000000,,2013-03-19 01:22:00,
2013-03-18 15:32:00,80.0,47.0,-100.00,SSW,212,11.0,17.0,31,0.00,,,0.00,919.000000,,2013-03-19 01:32:00,
2013-03-18 16:02:00,81.0,47.0,-100.00,SW,234,11.0,17.0,31,0.00,,,0.00,906.000000,,2013-03-19 02:02:00,
2013-03-18 16:12:00,81.0,47.0,-100.00,SW,234,11.0,17.0,31,0.00,,,0.00,906.000000,,2013-03-19 02:12:00,
2013-03-18 16:22:00,81.0,47.0,-100.00,SW,234,11.0,17.0,31,0.00,,,0.00,906.000000,,2013-03-19 02:22:00,
2013-03-18 16:32:00,81.0,47.0,-100.00,SW,234,11.0,17.0,31,0.00,,,0.00,906.000000,,2013-03-19 02:32:00,
2013-03-18 17:02:00,78.0,46.0,-100.00,SW,228,8.0,18.0,32,0.00,,,0.00,677.000000,,2013-03-19 03:02:00,
2013-03-18 17:12:00,78.0,46.0,-100.00,SW,228,8.0,18.0,32,0.00,,,0.00,677.000000,,2013-03-19 03:12:00,
2013-03-18 17:22:00,78.0,46.0,-100.00,SW,228,8.0,18.0,32,0.00,,,0.00,677.000000,,2013-03-19 03:22:00,
2013-03-18 17:32:00,78.0,46.0,-100.00,SW,228,8.0,18.0,32,0.00,,,0.00,677.000000,,2013-03-19 03:32:00,
2013-03-18 18:03:00,74.0,51.0,-100.00,SW,234,9.0,14.0,44,0.00,,,0.00,349.000000,,2013-03-19 04:03:00,
2013-03-18 18:13:00,74.0,51.0,-100.00,SW,234,9.0,14.0,44,0.00,,,0.00,349.000000,,2013-03-19 04:13:00,
2013-03-18 18:22:00,74.0,51.0,-100.00,SW,234,9.0,14.0,44,0.00,,,0.00,349.000000,,2013-03-19 04:22:00,
2013-03-18 18:32:00,74.0,51.0,-100.00,SW,234,9.0,14.0,44,0.00,,,0.00,349.000000,,2013-03-19 04:32:00,
2013-03-18 19:02:00,69.0,50.0,-100.00,SSE,149,2.0,13.0,50,0.00,,,0.00,57.000000,,2013-03-19 05:02:00,
2013-03-18 19:12:00,69.0,50.0,-100.00,SSE,149,2.0,13.0,50,0.00,,,0.00,57.000000,,2013-03-19 05:12:00,
2013-03-18 19:22:00,69.0,50.0,-100.00,SSE,149,2.0,13.0,50,0.00,,,0.00,57.000000,,2013-03-19 05:22:00,
2013-03-18 19:32:00,69.0,50.0,-100.00,SSE,149,2.0,13.0,50,0.00,,,0.00,57.000000,,2013-03-19 05:32:00,
2013-03-18 20:02:00,66.0,52.0,-100.00,East,85,3.0,6.0,61,0.00,,,0.00,3.000000,,2013-03-19 06:02:00,
2013-03-18 20:12:00,66.0,52.0,-100.00,East,85,3.0,6.0,61,0.00,,,0.00,3.000000,,2013-03-19 06:12:00,
2013-03-18 20:22:00,66.0,52.0,-100.00,East,85,3.0,6.0,61,0.00,,,0.00,3.000000,,2013-03-19 06:22:00,
2013-03-18 20:32:00,66.0,52.0,-100.00,East,85,3.0,6.0,61,0.00,,,0.00,3.000000,,2013-03-19 06:32:00,
2013-03-18 21:02:00,66.0,53.0,-100.00,NNE,25,3.0,5.0,62,0.00,,,0.00,0.000000,,2013-03-19 07:02:00,
2013-03-18 21:12:00,66.0,53.0,-100.00,NNE,25,3.0,5.0,62,0.00,,,0.00,0.000000,,2013-03-19 07:12:00,
2013-03-18 21:21:00,66.0,53.0,-100.00,NNE,25,3.0,5.0,62,0.00,,,0.00,0.000000,,2013-03-19 07:21:00,
2013-03-18 21:32:00,66.0,53.0,-100.00,NNE,25,3.0,5.0,62,0.00,,,0.00,0.000000,,2013-03-19 07:32:00,
2013-03-18 22:02:00,66.0,53.0,-100.00,NNE,17,3.0,6.0,63,0.00,,,0.00,0.000000,,2013-03-19 08:02:00,
2013-03-18 22:12:00,66.0,53.0,-100.00,NNE,17,3.0,6.0,63,0.00,,,0.00,0.000000,,2013-03-19 08:12:00,
2013-03-18 22:22:00,66.0,53.0,-100.00,NNE,17,3.0,6.0,63,0.00,,,0.00,0.000000,,2013-03-19 08:22:00,
2013-03-18 22:32:00,66.0,53.0,-100.00,NNE,17,3.0,6.0,63,0.00,,,0.00,0.000000,,2013-03-19 08:32:00,
2013-03-18 23:02:00,65.0,51.0,-100.00,NNE,12,5.0,9.0,61,0.00,,,0.00,0.000000,,2013-03-19 09:02:00,
2013-03-18 23:12:00,65.0,51.0,-100.00,NNE,12,5.0,9.0,61,0.00,,,0.00,0.000000,,2013-03-19 09:12:00,
2013-03-18 23:22:00,65.0,51.0,-100.00,NNE,12,5.0,9.0,61,0.00,,,0.00,0.000000,,2013-03-19 09:22:00,
2013-03-18 23:32:00,65.0,51.0,-100.00,NNE,12,5.0,9.0,61,0.00,,,0.00,0.000000,,2013-03-19 09:32:00,